Time;durP1;ratioP1;P1;durP2;ratioP2;P2;SDS_P1;SDS_P2;PMS_P1;PMS_P2;Temp;Humidity;BMP_temperature;BMP_pressure;BME280_temperature;BME280_humidity;BME280_pressure;Samples;Min_cycle;Max_cycle;Signal;HPM_P1;HPM_P2
2023/07/12 00:01:17;;;;;;;6.30;2.55;;;20.50;99.90;;;;;;5032371;28;20103;-75
2023/07/12 00:03:43;;;;;;;4.43;2.40;;;20.50;99.90;;;;;;5031447;28;20061;-76
2023/07/12 00:06:36;;;;;;;6.07;2.85;;;20.40;99.90;;;;;;5032499;28;20378;-75
2023/07/12 00:09:02;;;;;;;4.97;2.53;;;20.40;99.90;;;;;;5032483;28;20049;-75
2023/07/12 00:11:28;;;;;;;6.75;2.70;;;20.40;99.90;;;;;;5032242;28;20068;-75
2023/07/12 00:13:54;;;;;;;7.43;2.65;;;20.40;99.90;;;;;;5031416;28;20045;-72
2023/07/12 00:16:28;;;;;;;4.63;2.75;;;20.40;99.90;;;;;;5030745;28;20041;-74
2023/07/12 00:18:56;;;;;;;5.35;2.78;;;20.40;99.90;;;;;;5031374;28;20068;-74
2023/07/12 00:21:24;;;;;;;5.55;2.55;;;20.40;99.90;;;;;;5031705;28;20041;-74
2023/07/12 00:23:54;;;;;;;6.28;2.75;;;20.40;99.90;;;;;;5032328;28;20049;-75
2023/07/12 00:26:25;;;;;;;5.22;2.50;;;20.30;99.90;;;;;;5031128;28;20045;-75
2023/07/12 00:28:51;;;;;;;7.75;2.80;;;20.30;99.90;;;;;;5032570;28;20050;-75
2023/07/12 00:31:17;;;;;;;4.00;2.53;;;20.30;99.90;;;;;;5031996;28;20045;-75
2023/07/12 00:33:42;;;;;;;6.30;2.72;;;20.40;99.90;;;;;;5032342;28;20081;-75
2023/07/12 00:36:21;;;;;;;4.90;2.70;;;20.30;99.90;;;;;;5031071;28;20119;-74
2023/07/12 00:38:48;;;;;;;4.18;2.58;;;20.30;99.90;;;;;;5032252;28;20049;-75
2023/07/12 00:41:51;;;;;;;5.20;2.70;;;20.20;99.90;;;;;;5031260;28;20132;-75
2023/07/12 00:44:23;;;;;;;4.65;2.67;;;20.20;99.90;;;;;;5031244;28;20390;-74
2023/07/12 00:46:53;;;;;;;4.22;2.33;;;20.20;99.90;;;;;;5032344;28;20399;-76
2023/07/12 00:49:19;;;;;;;4.75;2.45;;;20.10;99.90;;;;;;5031795;28;20499;-75
2023/07/12 00:52:13;;;;;;;4.25;2.55;;;20.10;99.90;;;;;;5031816;28;20049;-75
2023/07/12 00:54:59;;;;;;;4.97;2.67;;;20.10;99.90;;;;;;5031546;28;20274;-75
2023/07/12 00:57:30;;;;;;;6.82;3.03;;;20.00;99.90;;;;;;5030728;28;20061;-76
2023/07/12 01:00:05;;;;;;;5.93;2.80;;;20.00;99.90;;;;;;5033255;28;20187;-74
2023/07/12 01:02:31;;;;;;;6.63;3.00;;;20.00;99.90;;;;;;5033738;28;20080;-75
2023/07/12 01:04:59;;;;;;;6.03;2.60;;;20.00;99.90;;;;;;5035821;28;20384;-75
2023/07/12 01:07:28;;;;;;;6.88;2.60;;;20.00;99.90;;;;;;5034558;28;20087;-75
2023/07/12 01:09:54;;;;;;;5.68;2.80;;;20.10;99.90;;;;;;5034526;28;20053;-74
2023/07/12 01:12:20;;;;;;;4.88;3.08;;;20.00;99.90;;;;;;5035720;28;20049;-75
2023/07/12 01:14:46;;;;;;;6.13;3.00;;;19.90;99.90;;;;;;5035125;28;20396;-75
2023/07/12 01:17:11;;;;;;;5.50;2.85;;;19.90;99.90;;;;;;5034630;28;20124;-74
2023/07/12 01:19:38;;;;;;;5.38;2.70;;;19.90;99.90;;;;;;5017847;28;20068;-75
2023/07/12 01:22:05;;;;;;;6.90;3.05;;;19.90;99.90;;;;;;5036038;28;20128;-75
2023/07/12 01:24:31;;;;;;;6.20;3.17;;;19.90;99.90;;;;;;5035280;28;20430;-75
2023/07/12 01:27:00;;;;;;;4.75;3.08;;;19.80;99.90;;;;;;5035350;28;20045;-74
2023/07/12 01:29:27;;;;;;;6.07;3.55;;;19.70;99.90;;;;;;5035482;28;20049;-75
2023/07/12 01:31:53;;;;;;;6.82;3.25;;;19.70;99.90;;;;;;5035339;28;20045;-74
2023/07/12 01:34:21;;;;;;;6.43;3.17;;;19.60;99.90;;;;;;5035205;28;20045;-75
2023/07/12 01:36:46;;;;;;;6.22;3.30;;;19.60;99.90;;;;;;5034185;28;20083;-75
2023/07/12 01:39:12;;;;;;;6.10;3.40;;;19.60;99.90;;;;;;5035058;28;20503;-75
2023/07/12 01:41:39;;;;;;;5.95;3.30;;;19.60;99.90;;;;;;5033685;28;20053;-75
2023/07/12 01:44:05;;;;;;;10.80;3.50;;;19.60;99.90;;;;;;5000932;28;20086;-75
2023/07/12 01:46:31;;;;;;;7.00;3.42;;;19.50;99.90;;;;;;5049752;28;20053;-76
2023/07/12 01:48:57;;;;;;;6.65;3.40;;;19.50;99.90;;;;;;5017615;28;20049;-74
2023/07/12 01:51:23;;;;;;;9.35;4.10;;;19.40;99.90;;;;;;5033533;28;20380;-74
2023/07/12 01:53:49;;;;;;;8.15;3.92;;;19.40;99.90;;;;;;5034385;28;20053;-74
2023/07/12 01:56:16;;;;;;;7.68;3.60;;;19.40;99.90;;;;;;5033280;28;20056;-75
2023/07/12 01:58:41;;;;;;;6.43;3.63;;;19.40;99.90;;;;;;5033248;28;20045;-75
2023/07/12 02:01:08;;;;;;;5.63;3.42;;;19.40;99.90;;;;;;5034711;28;20568;-75
2023/07/12 02:03:34;;;;;;;8.13;3.58;;;19.40;99.90;;;;;;5032720;28;20046;-75
2023/07/12 02:06:00;;;;;;;6.85;3.58;;;19.40;99.90;;;;;;5033333;28;20076;-74
2023/07/12 02:08:25;;;;;;;7.93;4.03;;;19.30;99.90;;;;;;5034638;28;20041;-75
2023/07/12 02:10:51;;;;;;;5.25;3.30;;;19.40;99.90;;;;;;5032919;28;20049;-74
2023/07/12 02:13:19;;;;;;;8.00;3.83;;;19.40;99.90;;;;;;5032499;28;20050;-76
2023/07/12 02:15:45;;;;;;;7.90;3.42;;;19.30;99.90;;;;;;5032836;28;20486;-75
2023/07/12 02:18:12;;;;;;;10.20;4.75;;;19.30;99.90;;;;;;5033475;28;20128;-75
2023/07/12 02:20:39;;;;;;;6.90;3.78;;;19.20;99.90;;;;;;5033676;28;20041;-75
2023/07/12 02:23:05;;;;;;;7.78;4.05;;;19.20;99.90;;;;;;5033227;28;20049;-76
2023/07/12 02:25:31;;;;;;;8.30;3.30;;;19.20;99.90;;;;;;5049461;28;20075;-75
2023/07/12 02:27:57;;;;;;;8.73;4.00;;;19.20;99.90;;;;;;5033727;28;20045;-74
2023/07/12 02:30:25;;;;;;;9.85;4.50;;;19.10;99.90;;;;;;5016449;28;20048;-75
2023/07/12 02:32:52;;;;;;;15.18;4.80;;;19.10;99.90;;;;;;5033726;28;20045;-74
2023/07/12 02:35:19;;;;;;;11.18;4.53;;;19.10;99.90;;;;;;5033207;28;20045;-75
2023/07/12 02:37:45;;;;;;;9.85;4.28;;;19.00;99.90;;;;;;5049607;28;20096;-74
2023/07/12 02:40:12;;;;;;;12.70;4.20;;;19.00;99.90;;;;;;5033807;28;20053;-75
2023/07/12 02:42:38;;;;;;;10.23;4.45;;;19.00;99.90;;;;;;5032949;28;20049;-75
2023/07/12 02:45:06;;;;;;;12.90;4.65;;;19.00;99.90;;;;;;5033211;28;20451;-77
2023/07/12 02:47:32;;;;;;;11.20;4.75;;;19.00;99.90;;;;;;5034172;28;20056;-74
2023/07/12 02:49:58;;;;;;;12.70;4.43;;;19.00;99.90;;;;;;5033672;28;20042;-78
2023/07/12 02:52:23;;;;;;;12.55;4.93;;;18.90;99.90;;;;;;5032771;28;20072;-77
2023/07/12 02:54:49;;;;;;;12.55;4.43;;;18.90;99.90;;;;;;5032051;28;20088;-79
2023/07/12 02:57:16;;;;;;;10.38;4.75;;;18.90;99.90;;;;;;5033572;28;20088;-76
2023/07/12 02:59:42;;;;;;;13.60;4.93;;;18.80;99.90;;;;;;5032878;28;20515;-76
2023/07/12 03:02:10;;;;;;;15.02;5.43;;;18.90;99.90;;;;;;5032999;28;20503;-75
2023/07/12 03:04:36;;;;;;;12.27;4.78;;;18.80;99.90;;;;;;5032214;28;20175;-75
2023/07/12 03:07:02;;;;;;;10.65;4.75;;;18.80;99.90;;;;;;5032602;28;20120;-76
2023/07/12 03:09:28;;;;;;;10.93;5.00;;;18.70;99.90;;;;;;5032502;28;20425;-76
2023/07/12 03:11:54;;;;;;;16.75;5.05;;;18.70;99.90;;;;;;5031762;28;20057;-78
2023/07/12 03:14:21;;;;;;;11.73;4.45;;;18.60;99.90;;;;;;5033107;28;20505;-77
2023/07/12 03:16:47;;;;;;;10.60;4.53;;;18.60;99.90;;;;;;5032868;28;20580;-79
2023/07/12 03:19:13;;;;;;;12.27;4.47;;;18.60;99.90;;;;;;5033650;28;20140;-78
2023/07/12 03:21:39;;;;;;;15.20;4.90;;;18.50;99.90;;;;;;5033163;28;20128;-78
2023/07/12 03:24:06;;;;;;;13.52;5.13;;;18.50;99.90;;;;;;5031241;28;20554;-79
2023/07/12 03:26:32;;;;;;;12.75;5.00;;;18.50;99.90;;;;;;5032304;28;20076;-80
2023/07/12 03:28:58;;;;;;;15.20;5.13;;;18.50;99.90;;;;;;5031967;28;20596;-78
2023/07/12 03:31:26;;;;;;;13.85;5.22;;;18.50;99.90;;;;;;5033198;28;20379;-77
2023/07/12 03:33:52;;;;;;;15.77;5.10;;;18.50;99.90;;;;;;5031766;28;20049;-77
2023/07/12 03:36:19;;;;;;;11.88;4.88;;;18.40;99.90;;;;;;5032015;28;20049;-78
2023/07/12 03:38:45;;;;;;;14.45;4.78;;;18.40;99.90;;;;;;5032683;28;20107;-77
2023/07/12 03:41:14;;;;;;;11.45;4.80;;;18.40;99.90;;;;;;5032913;28;20045;-78
2023/07/12 03:43:40;;;;;;;14.32;4.82;;;18.40;99.90;;;;;;5032912;28;20057;-75
2023/07/12 03:46:06;;;;;;;14.52;4.78;;;18.40;99.90;;;;;;5032695;28;20056;-76
2023/07/12 03:48:32;;;;;;;21.38;5.30;;;18.40;99.90;;;;;;5033014;28;20049;-77
2023/07/12 03:50:58;;;;;;;13.95;4.88;;;18.40;99.90;;;;;;5032723;28;20056;-77
2023/07/12 03:53:25;;;;;;;12.95;4.70;;;18.30;99.90;;;;;;5032036;28;20099;-78
2023/07/12 03:55:52;;;;;;;16.25;4.75;;;18.40;99.90;;;;;;5032408;28;20053;-78
2023/07/12 03:58:23;;;;;;;15.98;5.25;;;18.30;99.90;;;;;;5032969;28;20091;-76
2023/07/12 04:00:50;;;;;;;15.48;5.40;;;18.30;99.90;;;;;;5031785;28;20057;-77
2023/07/12 04:03:17;;;;;;;14.80;4.85;;;18.30;99.90;;;;;;5032917;28;20176;-75
2023/07/12 04:05:44;;;;;;;10.90;4.30;;;18.40;99.90;;;;;;5031804;28;20577;-74
2023/07/12 04:08:12;;;;;;;14.18;4.82;;;18.30;99.90;;;;;;5031488;28;20376;-79
2023/07/12 04:10:38;;;;;;;15.70;5.32;;;18.30;99.90;;;;;;5014777;28;20042;-78
2023/07/12 04:13:04;;;;;;;13.98;4.88;;;18.30;99.90;;;;;;5031479;28;20616;-76
2023/07/12 04:15:31;;;;;;;14.77;4.90;;;18.20;99.90;;;;;;5032302;28;20045;-77
2023/07/12 04:17:56;;;;;;;12.80;4.53;;;18.20;99.90;;;;;;5014575;28;20402;-77
2023/07/12 04:20:22;;;;;;;13.23;4.88;;;18.20;99.90;;;;;;5031398;28;20042;-78
2023/07/12 04:22:52;;;;;;;14.70;4.70;;;18.20;99.90;;;;;;5032017;28;20046;-76
2023/07/12 04:25:18;;;;;;;11.80;4.50;;;18.20;99.90;;;;;;5032246;28;20088;-76
2023/07/12 04:27:44;;;;;;;12.45;4.80;;;18.30;99.90;;;;;;5031441;28;20118;-77
2023/07/12 04:30:16;;;;;;;14.05;4.38;;;18.30;99.90;;;;;;5031154;28;20050;-78
2023/07/12 04:32:43;;;;;;;12.95;5.20;;;18.30;99.90;;;;;;5032660;28;20045;-77
2023/07/12 04:35:10;;;;;;;18.65;5.30;;;18.30;99.90;;;;;;5032531;28;20107;-78
2023/07/12 04:37:36;;;;;;;14.73;4.97;;;18.30;99.90;;;;;;5036210;28;20383;-76
2023/07/12 04:40:03;;;;;;;14.57;4.97;;;18.30;99.90;;;;;;5035108;28;20052;-76
2023/07/12 04:42:29;;;;;;;15.90;5.20;;;18.30;99.90;;;;;;5036615;28;20128;-76
2023/07/12 04:44:54;;;;;;;19.17;5.57;;;18.20;99.90;;;;;;5036156;28;20080;-76
2023/07/12 04:47:20;;;;;;;14.18;4.53;;;18.20;99.90;;;;;;5034939;28;20042;-76
2023/07/12 04:49:46;;;;;;;11.98;4.57;;;18.20;99.90;;;;;;5036346;28;20056;-77
2023/07/12 04:52:12;;;;;;;14.07;5.15;;;18.20;99.90;;;;;;5035750;28;20045;-78
2023/07/12 04:54:42;;;;;;;11.43;4.45;;;18.20;99.90;;;;;;5036207;28;20045;-77
2023/07/12 04:57:08;;;;;;;17.33;5.07;;;18.20;99.90;;;;;;5035709;28;20049;-76
2023/07/12 04:59:35;;;;;;;13.15;4.72;;;18.20;99.90;;;;;;5034728;28;20042;-76
2023/07/12 05:02:01;;;;;;;14.88;4.72;;;18.20;99.90;;;;;;5035196;28;20061;-76
2023/07/12 05:04:26;;;;;;;12.57;4.85;;;18.20;99.90;;;;;;5036035;28;20057;-76
2023/07/12 05:06:52;;;;;;;14.93;4.85;;;18.20;99.90;;;;;;5035359;28;20045;-75
2023/07/12 05:09:20;;;;;;;13.93;5.40;;;18.20;99.90;;;;;;5035636;28;20095;-77
2023/07/12 05:11:47;;;;;;;14.68;4.97;;;18.20;99.90;;;;;;5035577;28;20368;-76
2023/07/12 05:14:12;;;;;;;12.90;4.95;;;18.20;99.90;;;;;;5034316;28;20057;-76
2023/07/12 05:16:38;;;;;;;13.32;5.22;;;18.30;99.90;;;;;;5035487;28;20044;-76
2023/07/12 05:19:04;;;;;;;14.93;5.72;;;18.30;99.90;;;;;;5034075;28;20052;-76
2023/07/12 05:21:29;;;;;;;16.15;5.55;;;18.30;99.90;;;;;;5034345;28;20083;-76
2023/07/12 05:23:55;;;;;;;15.45;5.00;;;18.60;99.90;;;;;;5035254;28;20091;-76
2023/07/12 05:26:21;;;;;;;11.82;4.97;;;19.00;99.90;;;;;;5034321;28;20045;-75
2023/07/12 05:28:47;;;;;;;13.73;5.30;;;19.10;99.90;;;;;;5034571;28;20050;-75
2023/07/12 05:31:13;;;;;;;12.95;5.22;;;19.20;99.90;;;;;;5033709;28;20212;-76
2023/07/12 05:33:44;;;;;;;18.52;4.93;;;19.10;99.90;;;;;;5035300;28;20071;-75
2023/07/12 05:36:11;;;;;;;13.05;4.68;;;19.10;99.90;;;;;;5034015;28;20482;-76
2023/07/12 05:38:37;;;;;;;13.48;4.85;;;19.10;99.90;;;;;;5034310;28;20077;-75
2023/07/12 05:41:02;;;;;;;11.52;4.65;;;19.10;99.90;;;;;;5035466;28;20134;-75
2023/07/12 05:43:28;;;;;;;14.23;5.28;;;19.50;99.90;;;;;;5034748;28;20088;-75
2023/07/12 05:45:57;;;;;;;13.45;4.57;;;20.10;99.90;;;;;;5033616;28;20536;-75
2023/07/12 05:48:24;;;;;;;13.93;5.05;;;20.80;99.90;;;;;;5034410;28;20056;-74
2023/07/12 05:50:57;;;;;;;14.57;4.78;;;20.80;99.90;;;;;;5034977;28;20048;-74
2023/07/12 05:53:23;;;;;;;14.18;4.45;;;20.80;99.90;;;;;;5034914;28;20387;-75
2023/07/12 05:55:55;;;;;;;13.18;4.70;;;21.00;99.90;;;;;;5033947;28;20053;-75
2023/07/12 05:58:20;;;;;;;11.98;4.70;;;20.90;99.90;;;;;;5033705;28;20059;-75
2023/07/12 06:00:47;;;;;;;12.55;4.47;;;20.80;99.90;;;;;;5033598;28;20049;-75
2023/07/12 06:03:12;;;;;;;18.55;4.82;;;20.60;99.90;;;;;;5032584;28;20065;-75
2023/07/12 06:05:41;;;;;;;13.48;4.82;;;20.30;99.90;;;;;;5032685;28;20048;-74
2023/07/12 06:08:07;;;;;;;13.70;4.70;;;20.10;99.90;;;;;;5033606;28;20589;-75
2023/07/12 06:10:33;;;;;;;17.60;5.05;;;19.90;99.90;;;;;;5034323;28;20049;-73
2023/07/12 06:12:59;;;;;;;11.15;4.70;;;19.70;99.90;;;;;;5016565;28;20057;-75
2023/07/12 06:15:24;;;;;;;13.98;5.03;;;19.60;99.90;;;;;;5034293;28;20128;-75
2023/07/12 06:17:51;;;;;;;14.73;4.63;;;19.40;99.90;;;;;;5016800;28;20047;-75
2023/07/12 06:20:16;;;;;;;15.38;4.72;;;19.40;99.90;;;;;;5032835;28;20061;-73
2023/07/12 06:22:42;;;;;;;13.95;4.30;;;19.40;99.90;;;;;;5033352;28;20056;-76
2023/07/12 06:25:10;;;;;;;17.25;4.78;;;19.40;99.90;;;;;;5016501;28;20102;-75
2023/07/12 06:27:35;;;;;;;13.10;4.35;;;19.40;99.90;;;;;;5034950;28;20057;-73
2023/07/12 06:30:02;;;;;;;14.00;4.85;;;19.70;99.90;;;;;;5032926;28;20049;-76
2023/07/12 06:32:28;;;;;;;12.30;4.25;;;20.30;99.90;;;;;;5034055;28;20110;-72
2023/07/12 06:34:53;;;;;;;13.98;4.30;;;21.20;99.90;;;;;;5032771;28;20457;-73
2023/07/12 06:37:19;;;;;;;11.80;4.20;;;22.20;99.90;;;;;;5015962;28;20041;-74
2023/07/12 06:39:45;;;;;;;11.88;4.05;;;23.00;99.90;;;;;;5016465;28;20136;-75
2023/07/12 06:42:13;;;;;;;13.15;3.88;;;23.60;99.90;;;;;;5032526;28;20049;-76
2023/07/12 06:44:38;;;;;;;17.45;5.00;;;24.00;99.90;;;;;;5032991;28;20049;-76
2023/07/12 06:47:04;;;;;;;16.52;4.50;;;23.40;99.90;;;;;;5016051;28;20395;-76
2023/07/12 06:49:30;;;;;;;13.48;4.60;;;23.30;99.90;;;;;;5016430;28;20049;-75
2023/07/12 06:51:57;;;;;;;11.70;5.05;;;23.10;99.90;;;;;;5015868;28;20046;-75
2023/07/12 06:54:23;;;;;;;16.00;4.80;;;22.80;99.90;;;;;;5031887;28;20143;-75
2023/07/12 06:56:49;;;;;;;14.75;4.75;;;22.60;99.90;;;;;;5032509;28;20053;-76
2023/07/12 06:59:14;;;;;;;8.95;3.60;;;22.80;99.90;;;;;;5031846;28;20111;-76
2023/07/12 07:01:40;;;;;;;13.45;4.38;;;22.90;99.90;;;;;;5032152;28;20122;-75
2023/07/12 07:04:06;;;;;;;10.15;4.20;;;23.00;99.90;;;;;;5015426;28;20057;-77
2023/07/12 07:06:33;;;;;;;11.93;4.03;;;23.40;99.90;;;;;;5015752;28;20490;-74
2023/07/12 07:08:59;;;;;;;13.65;4.63;;;24.00;99.90;;;;;;5016084;28;20205;-75
2023/07/12 07:11:25;;;;;;;11.05;3.85;;;24.50;99.90;;;;;;5015373;28;20120;-76
2023/07/12 07:13:51;;;;;;;13.50;4.30;;;24.60;99.90;;;;;;5032418;28;20483;-76
2023/07/12 07:16:17;;;;;;;11.05;3.60;;;24.60;99.90;;;;;;5031928;28;20045;-75
2023/07/12 07:18:44;;;;;;;12.63;3.85;;;25.00;99.90;;;;;;5015909;28;20055;-75
2023/07/12 07:21:10;;;;;;;11.02;4.07;;;25.10;99.90;;;;;;5015526;28;20391;-74
2023/07/12 07:23:35;;;;;;;15.63;4.40;;;24.60;99.90;;;;;;5032270;28;20053;-77
2023/07/12 07:26:03;;;;;;;14.52;4.20;;;24.00;99.90;;;;;;5031900;28;20462;-81
2023/07/12 07:28:29;;;;;;;12.98;3.67;;;24.10;99.90;;;;;;5031932;28;20061;-79
2023/07/12 07:30:56;;;;;;;13.20;3.78;;;24.10;99.90;;;;;;5015595;28;20046;-79
2023/07/12 07:33:22;;;;;;;17.23;3.90;;;24.10;99.90;;;;;;5032281;28;20069;-77
2023/07/12 07:35:48;;;;;;;9.60;3.38;;;24.40;99.90;;;;;;5015495;28;20049;-75
2023/07/12 07:38:13;;;;;;;11.90;3.50;;;24.30;99.90;;;;;;5015248;28;20490;-75
2023/07/12 07:40:43;;;;;;;13.20;3.83;;;24.00;99.90;;;;;;5015672;28;20499;-76
2023/07/12 07:43:10;;;;;;;15.18;3.90;;;23.70;99.90;;;;;;5032000;28;20195;-79
2023/07/12 07:45:36;;;;;;;13.30;4.03;;;23.40;99.90;;;;;;5015548;28;20056;-77
2023/07/12 07:48:02;;;;;;;12.75;4.03;;;23.10;99.90;;;;;;5031619;28;20079;-75
2023/07/12 07:50:28;;;;;;;12.60;3.65;;;22.90;99.90;;;;;;5014672;28;20120;-75
2023/07/12 07:52:53;;;;;;;13.50;3.97;;;22.70;99.90;;;;;;5031755;28;20041;-75
2023/07/12 07:55:21;;;;;;;11.20;3.85;;;23.00;99.90;;;;;;5015192;28;20342;-75
2023/07/12 07:57:47;;;;;;;11.82;3.75;;;23.40;99.90;;;;;;5031687;28;20045;-74
2023/07/12 08:00:13;;;;;;;10.10;3.50;;;23.40;99.90;;;;;;5031007;28;20048;-78
2023/07/12 08:02:43;;;;;;;13.75;3.78;;;23.20;99.90;;;;;;5031345;28;20089;-75
2023/07/12 08:05:13;;;;;;;12.90;3.95;;;22.80;99.90;;;;;;5031610;28;20076;-74
2023/07/12 08:07:41;;;;;;;13.85;3.47;;;22.50;99.90;;;;;;5032605;28;20111;-76
2023/07/12 08:10:12;;;;;;;15.10;4.00;;;22.40;99.90;;;;;;5014156;28;20063;-78
2023/07/12 08:12:38;;;;;;;9.65;3.33;;;22.10;99.90;;;;;;5031157;28;20092;-78
2023/07/12 08:15:04;;;;;;;13.50;3.70;;;21.80;99.90;;;;;;5015316;28;20085;-77
2023/07/12 08:17:31;;;;;;;15.02;4.15;;;21.70;99.90;;;;;;5030444;28;20132;-78
2023/07/12 08:19:56;;;;;;;12.18;3.95;;;21.50;99.90;;;;;;5031769;28;20059;-78
2023/07/12 08:22:23;;;;;;;12.45;4.03;;;21.50;99.90;;;;;;5014756;28;20436;-80
2023/07/12 08:24:48;;;;;;;10.32;3.42;;;21.50;99.90;;;;;;5031978;28;20042;-78
2023/07/12 08:27:16;;;;;;;9.48;3.55;;;21.30;99.90;;;;;;5014899;28;20395;-79
2023/07/12 08:29:45;;;;;;;9.50;2.75;;;21.20;99.90;;;;;;5031123;28;20049;-76
2023/07/12 08:32:11;;;;;;;10.57;3.10;;;21.00;99.90;;;;;;5031186;28;20038;-76
2023/07/12 08:34:37;;;;;;;10.15;2.70;;;20.90;99.90;;;;;;5031067;28;20044;-75
2023/07/12 08:37:03;;;;;;;8.32;2.60;;;20.80;99.90;;;;;;5031300;28;20053;-77
2023/07/12 08:39:29;;;;;;;6.80;2.70;;;20.80;99.90;;;;;;5031373;28;20064;-78
2023/07/12 08:41:56;;;;;;;7.38;2.60;;;20.80;99.90;;;;;;5031389;28;20045;-78
2023/07/12 08:44:22;;;;;;;7.57;3.08;;;21.30;99.90;;;;;;5015035;28;20049;-77
2023/07/12 08:46:55;;;;;;;8.02;2.97;;;22.00;99.90;;;;;;5032597;28;20479;-79
2023/07/12 08:49:23;;;;;;;6.70;2.47;;;22.20;99.90;;;;;;5032969;28;20053;-78
2023/07/12 08:51:50;;;;;;;10.35;2.72;;;22.20;99.90;;;;;;5031330;28;20046;-77
2023/07/12 08:54:34;;;;;;;8.73;2.83;;;22.10;99.90;;;;;;5032287;28;20136;-77
2023/07/12 08:57:20;;;;;;;7.95;2.97;;;22.10;99.90;;;;;;5031712;28;20081;-77
2023/07/12 09:00:07;;;;;;;12.18;3.63;;;21.90;99.90;;;;;;5031263;28;20042;-73
2023/07/12 09:02:34;;;;;;;10.15;3.55;;;21.80;99.90;;;;;;5030314;28;20054;-76
2023/07/12 09:05:19;;;;;;;11.80;3.47;;;21.70;99.90;;;;;;5031312;28;20053;-75
2023/07/12 09:08:14;;;;;;;9.50;3.30;;;21.70;99.90;;;;;;5030873;28;20622;-76
2023/07/12 09:10:50;;;;;;;9.75;3.05;;;21.70;99.90;;;;;;5030334;28;20471;-76
2023/07/12 09:13:17;;;;;;;9.45;3.10;;;21.60;99.90;;;;;;5032008;28;20049;-76
2023/07/12 09:15:52;;;;;;;9.55;3.30;;;21.80;99.90;;;;;;5030536;28;20050;-77
2023/07/12 09:18:32;;;;;;;13.57;3.92;;;21.90;99.90;;;;;;5031113;28;20037;-78
2023/07/12 09:21:04;;;;;;;9.05;3.25;;;22.70;99.90;;;;;;5031986;28;20048;-76
2023/07/12 09:23:37;;;;;;;10.32;3.08;;;23.60;99.90;;;;;;5034252;28;20371;-75
2023/07/12 09:26:10;;;;;;;8.07;2.80;;;24.50;99.90;;;;;;5034533;28;20045;-76
2023/07/12 09:28:40;;;;;;;8.98;2.70;;;25.20;99.90;;;;;;5034151;28;20637;-75
2023/07/12 09:31:21;;;;;;;7.93;2.50;;;25.60;99.90;;;;;;5032656;28;20288;-79
2023/07/12 09:33:57;;;;;;;7.47;2.70;;;25.40;99.90;;;;;;5033077;28;20053;-75
2023/07/12 09:36:23;;;;;;;6.28;2.10;;;24.80;99.90;;;;;;5014544;28;20053;-78
2023/07/12 09:38:49;;;;;;;6.93;2.20;;;24.70;99.90;;;;;;5031381;28;20156;-75
2023/07/12 09:41:23;;;;;;;6.07;2.17;;;24.90;99.90;;;;;;5031336;28;20076;-76
2023/07/12 09:44:01;;;;;;;7.78;2.42;;;24.80;99.90;;;;;;5029623;28;20513;-75
2023/07/12 09:46:36;;;;;;;8.32;2.25;;;24.70;99.90;;;;;;5032604;28;20045;-73
2023/07/12 09:49:10;;;;;;;9.90;2.58;;;24.70;99.90;;;;;;5033803;28;20037;-73
2023/07/12 09:51:39;;;;;;;6.70;2.30;;;24.80;99.90;;;;;;5031294;28;20049;-74
2023/07/12 09:54:18;;;;;;;8.27;2.92;;;25.10;99.90;;;;;;5031887;28;20121;-75
2023/07/12 09:56:53;;;;;;;9.23;2.63;;;25.50;99.90;;;;;;5032799;28;20057;-74
2023/07/12 09:59:19;;;;;;;8.63;2.90;;;25.90;99.90;;;;;;5034101;28;20045;-77
2023/07/12 10:01:59;;;;;;;9.82;2.47;;;26.40;99.90;;;;;;5032822;28;20053;-74
2023/07/12 10:04:31;;;;;;;5.43;2.33;;;26.30;99.90;;;;;;5033578;28;20084;-73
2023/07/12 10:06:57;;;;;;;7.00;2.40;;;26.10;99.90;;;;;;5017064;28;20434;-72
2023/07/12 10:09:29;;;;;;;7.22;2.30;;;25.70;99.90;;;;;;5017405;28;20049;-73
2023/07/12 10:12:01;;;;;;;6.30;1.93;;;25.30;99.90;;;;;;5049922;28;20038;-73
2023/07/12 10:14:41;;;;;;;6.55;2.45;;;24.90;99.90;;;;;;5033441;28;20088;-73
2023/07/12 10:17:16;;;;;;;7.22;2.13;;;24.70;99.90;;;;;;5032376;28;20049;-74
2023/07/12 10:19:44;;;;;;;8.48;2.40;;;24.60;99.90;;;;;;5031827;28;20080;-73
2023/07/12 10:22:20;;;;;;;7.72;2.35;;;24.80;99.90;;;;;;5033313;28;20045;-71
2023/07/12 10:24:50;;;;;;;7.07;2.00;;;24.80;99.90;;;;;;5015556;28;20050;-74
2023/07/12 10:27:23;;;;;;;6.72;2.10;;;24.90;99.90;;;;;;5032939;28;20064;-75
2023/07/12 10:30:11;;;;;;;4.95;1.92;;;24.80;99.90;;;;;;5034010;28;20038;-74
2023/07/12 10:32:45;;;;;;;4.03;1.63;;;24.80;99.90;;;;;;5031207;28;20395;-73
2023/07/12 10:35:51;;;;;;;4.13;1.88;;;24.60;99.90;;;;;;5032942;28;20050;-73
2023/07/12 10:38:20;;;;;;;3.78;1.77;;;24.60;99.80;;;;;;5032754;28;20187;-73
2023/07/12 10:40:56;;;;;;;5.50;1.83;;;24.60;99.90;;;;;;5031822;28;20041;-73
2023/07/12 10:43:47;;;;;;;6.38;2.13;;;24.70;99.60;;;;;;5015717;28;20426;-71
2023/07/12 10:46:36;;;;;;;8.43;2.00;;;24.60;99.80;;;;;;5032952;28;20061;-73
2023/07/12 10:49:09;;;;;;;4.35;1.92;;;24.50;99.90;;;;;;5032633;28;20084;-72
2023/07/12 10:51:40;;;;;;;9.35;1.98;;;24.40;99.30;;;;;;5032260;28;20045;-73
2023/07/12 10:54:29;;;;;;;4.65;1.80;;;24.30;98.90;;;;;;5032399;28;20052;-73
2023/07/12 10:57:01;;;;;;;6.65;1.80;;;24.30;99.20;;;;;;5031956;28;20663;-71
2023/07/12 10:59:32;;;;;;;4.60;1.70;;;24.40;99.70;;;;;;5032699;28;20057;-72
2023/07/12 11:02:04;;;;;;;5.53;1.58;;;24.50;99.30;;;;;;5031873;28;20479;-72
2023/07/12 11:04:30;;;;;;;5.00;1.60;;;24.70;99.20;;;;;;5032568;28;20053;-72
2023/07/12 11:07:08;;;;;;;5.60;2.03;;;24.80;99.40;;;;;;5032060;28;20053;-72
2023/07/12 11:09:43;;;;;;;7.15;1.80;;;24.90;99.60;;;;;;5015930;28;20046;-72
2023/07/12 11:12:31;;;;;;;4.88;1.45;;;25.00;99.00;;;;;;5032011;28;20119;-73
2023/07/12 11:15:03;;;;;;;4.38;1.67;;;25.20;99.40;;;;;;5017475;28;20053;-72
2023/07/12 11:17:46;;;;;;;6.35;1.92;;;25.20;98.20;;;;;;5032434;28;20056;-71
2023/07/12 11:20:42;;;;;;;4.40;1.60;;;25.00;98.00;;;;;;5048899;28;20050;-71
2023/07/12 11:23:34;;;;;;;4.20;1.80;;;24.80;97.70;;;;;;5021589;28;20049;-71
2023/07/12 11:26:18;;;;;;;5.00;1.60;;;24.60;98.80;;;;;;4985151;28;20063;-72
2023/07/12 11:28:44;;;;;;;6.63;1.83;;;24.70;98.80;;;;;;5031684;28;20128;-71
2023/07/12 11:31:23;;;;;;;4.75;1.50;;;24.80;98.60;;;;;;5032042;28;20045;-71
2023/07/12 11:34:16;;;;;;;7.75;1.52;;;24.90;97.80;;;;;;5032571;28;20053;-70
2023/07/12 11:36:54;;;;;;;4.10;1.50;;;25.00;97.50;;;;;;5032504;28;20049;-72
2023/07/12 11:39:24;;;;;;;4.80;1.63;;;24.90;97.60;;;;;;5031597;28;20288;-72
2023/07/12 11:42:23;;;;;;;9.05;2.13;;;24.70;97.90;;;;;;5031475;28;20081;-72
2023/07/12 11:45:09;;;;;;;3.42;1.50;;;24.60;97.70;;;;;;5029352;28;20137;-72
2023/07/12 11:47:39;;;;;;;4.78;1.50;;;24.40;96.80;;;;;;5032911;28;20049;-72
2023/07/12 11:50:06;;;;;;;4.13;1.30;;;24.60;97.30;;;;;;5031318;28;20115;-72
2023/07/12 11:52:34;;;;;;;3.97;1.63;;;24.60;96.90;;;;;;5031490;28;20053;-72
2023/07/12 11:55:04;;;;;;;5.47;1.73;;;24.70;97.80;;;;;;5031006;28;20164;-72
2023/07/12 11:57:38;;;;;;;5.35;1.55;;;24.80;97.50;;;;;;5048058;28;20440;-72
2023/07/12 12:00:30;;;;;;;;;;;24.70;96.80;;;;;;5031613;28;20050;-71
2023/07/12 12:02:58;;;;;;;3.53;1.45;;;24.40;97.00;;;;;;5026806;28;20441;-72
2023/07/12 12:05:33;;;;;;;4.03;1.55;;;24.30;97.80;;;;;;5032856;28;20523;-71
2023/07/12 12:08:00;;;;;;;8.18;1.73;;;24.20;97.30;;;;;;5047508;28;20045;-72
2023/07/12 12:10:32;;;;;;;4.45;1.55;;;24.20;97.90;;;;;;5031332;28;20398;-71
2023/07/12 12:12:59;;;;;;;7.70;1.80;;;24.30;97.80;;;;;;5031093;28;20059;-71
2023/07/12 12:15:32;;;;;;;6.97;1.88;;;24.40;97.40;;;;;;5015182;28;20053;-71
2023/07/12 12:18:10;;;;;;;6.27;1.40;;;24.40;96.40;;;;;;5014586;28;20082;-72
2023/07/12 12:20:37;;;;;;;3.10;1.20;;;24.50;96.40;;;;;;5031335;28;20291;-72
2023/07/12 12:23:18;;;;;;;3.47;1.27;;;24.60;95.40;;;;;;5030933;28;20045;-71
2023/07/12 12:25:49;;;;;;;5.30;1.30;;;24.60;95.60;;;;;;5032263;28;20045;-75
2023/07/12 12:28:29;;;;;;;4.57;1.02;;;24.60;96.20;;;;;;5031110;28;20546;-71
2023/07/12 12:31:17;;;;;;;4.93;1.40;;;24.60;95.00;;;;;;5030608;28;20038;-71
2023/07/12 12:34:26;;;;;;;2.30;1.10;;;24.70;94.50;;;;;;5031366;28;20088;-73
2023/07/12 12:37:14;;;;;;;5.13;1.30;;;24.80;95.40;;;;;;4938854;28;20197;-72
2023/07/12 12:39:39;;;;;;;8.40;1.67;;;24.80;94.80;;;;;;5026478;28;20131;-71
2023/07/12 12:42:20;;;;;;;5.13;1.50;;;24.80;95.00;;;;;;5030754;28;20049;-72
2023/07/12 12:44:46;;;;;;;3.95;1.23;;;24.70;95.30;;;;;;5030919;28;20061;-75
2023/07/12 12:47:17;;;;;;;2.95;1.08;;;24.60;95.40;;;;;;5014616;28;20049;-71
2023/07/12 12:49:43;;;;;;;3.60;1.30;;;24.60;95.40;;;;;;5030594;28;20057;-71
2023/07/12 12:52:24;;;;;;;3.08;1.30;;;24.50;95.10;;;;;;5030452;28;20103;-72
2023/07/12 12:54:50;;;;;;;2.10;1.02;;;24.50;94.10;;;;;;5014444;28;20554;-72
2023/07/12 12:57:17;;;;;;;3.55;1.42;;;24.40;94.90;;;;;;5034314;28;20045;-71